Cinzia A — TCA4007 — position and weather

sailwx.info

Track history (hours):
 
Tides and Currents Weather Stations Pressure Air Temp Water Temp Dewpoint Dewpoint Depression Visibility Wind Speed Wind Dir Waves Ship Positions

Cinzia A

Last reported at 2017-Nov-18 03:28 UTC. Time now 2017-Nov-19 15:49 UTC.
Position N 37°38' E 023°43'.

Length 200 m; draft 11.1 m.

Type: Ship (hazmat cat A). MMSI: 271044448.

Date/timePositionNaut miles runAvg speedWind from/ knotsBaromVisibWave heightAir tempDewpointWater temp
2017-Nov-18 03:28N 37°38' E 023°43'612.0
2017-Nov-18 03:00N 37°43' E 023°40'612.0
2017-Nov-18 02:31N 37°48' E 023°37'611.7
2017-Nov-18 02:00N 37°54' E 023°36'3 6.3
2017-Nov-18 01:31N 37°57' E 023°35'0 0.7
2017-Nov-18 00:59N 37°57' E 023°35'0 0.0
2017-Nov-18 00:25N 37°57' E 023°35'0 0.0
2017-Nov-17 23:58N 37°57' E 023°35'0 0.0
2017-Nov-17 23:30N 37°57' E 023°35'0 0.0
2017-Nov-17 23:00N 37°57' E 023°35'0 0.0
2017-Nov-17 22:30N 37°57' E 023°35'0 0.0
2017-Nov-17 22:00N 37°57' E 023°35'0 0.0
2017-Nov-17 21:29N 37°57' E 023°35'0 0.0
2017-Nov-17 20:59N 37°57' E 023°35'0 0.0
2017-Nov-17 20:29N 37°57' E 023°35'0 0.0
2017-Nov-17 19:59N 37°57' E 023°35'0 0.0
2017-Nov-17 19:29N 37°57' E 023°35'0 0.0
2017-Nov-17 18:59N 37°57' E 023°35'0 0.0
2017-Nov-17 18:26N 37°57' E 023°35'0 0.0
2017-Nov-17 18:00N 37°57' E 023°35'0 0.0
2017-Nov-17 17:30N 37°57' E 023°35'0 0.0
2017-Nov-17 17:00N 37°57' E 023°35'0 0.0
2017-Nov-17 16:28N 37°57' E 023°35'0 0.0
2017-Nov-17 15:58N 37°57' E 023°35'0 0.0
2017-Nov-17 15:25N 37°57' E 023°35'0 0.1
2017-Nov-17 14:59N 37°57' E 023°35'0 0.0
2017-Nov-17 14:29N 37°57' E 023°35'0 0.0
2017-Nov-17 13:59N 37°57' E 023°35'0 0.0
2017-Nov-17 13:29N 37°57' E 023°35'0 0.0
2017-Nov-17 12:58N 37°57' E 023°35'0 0.0
2017-Nov-17 12:28N 37°57' E 023°35'0 0.0
2017-Nov-17 11:34N 37°57' E 023°35'0 0.0
2017-Nov-17 11:22N 37°57' E 023°35'0 0.0
2017-Nov-17 10:58N 37°57' E 023°35'0 0.0
2017-Nov-17 10:28N 37°57' E 023°35'0 0.0
2017-Nov-17 09:58N 37°57' E 023°35'0 0.0
2017-Nov-17 09:28N 37°57' E 023°35'0 0.0
2017-Nov-17 08:58N 37°57' E 023°35'0 0.0
2017-Nov-17 08:28N 37°57' E 023°35'0 0.0
2017-Nov-17 07:59N 37°57' E 023°35'0 0.0
2017-Nov-17 07:29N 37°57' E 023°35'0 0.0
2017-Nov-17 06:59N 37°57' E 023°35'0 0.0
2017-Nov-17 06:29N 37°57' E 023°35'1 1.3
2017-Nov-17 06:00N 37°57' E 023°35'2 3.8
2017-Nov-17 05:30N 37°55' E 023°35'2 5.0
2017-Nov-17 05:00N 37°52' E 023°34'0 0.5
2017-Nov-17 04:30N 37°53' E 023°35'0 0.3
2017-Nov-17 04:00N 37°52' E 023°34'0 0.4
2017-Nov-17 03:30N 37°52' E 023°34'0 0.4
2017-Nov-17 03:00N 37°52' E 023°34'2 4.4
2017-Nov-17 02:30N 37°54' E 023°36'510.7
2017-Nov-17 02:00N 37°49' E 023°40'611.9
2017-Nov-17 01:30N 37°44' E 023°44'611.7
2017-Nov-17 01:00N 37°38' E 023°46'611.5
2017-Nov-17 00:30N 37°33' E 023°48'711.5
2017-Nov-16 23:56N 37°27' E 023°46'511.6
2017-Nov-16 23:30N 37°22' E 023°44'611.7
2017-Nov-16 23:00N 37°16' E 023°42'34810.2
2017-Nov-15 12:56N 37°41' E 016°25'1010.2
2017-Nov-15 11:56N 37°43' E 016°12'5 9.9
2017-Nov-15 11:28N 37°45' E 016°07'511.0
2017-Nov-15 11:00N 37°47' E 016°01'612.2
2017-Nov-15 10:29N 37°49' E 015°53'612.2
2017-Nov-15 10:00N 37°51' E 015°46'611.6
2017-Nov-15 09:29N 37°53' E 015°39'612.1
2017-Nov-15 09:00N 37°58' E 015°36'611.5
2017-Nov-15 08:30N 38°04' E 015°34'510.6
2017-Nov-15 08:00N 38°09' E 015°35'613.0
2017-Nov-15 07:30N 38°15' E 015°38'611.6
2017-Nov-15 07:00N 38°21' E 015°38'611.4
2017-Nov-15 06:30N 38°25' E 015°32'611.2
2017-Nov-15 06:00N 38°29' E 015°27'611.4
2017-Nov-15 05:30N 38°33' E 015°22'611.6
2017-Nov-15 05:00N 38°37' E 015°17'612.0
2017-Nov-15 04:28N 38°41' E 015°11'611.8
2017-Nov-15 03:59N 38°45' E 015°05'612.0
2017-Nov-15 03:29N 38°48' E 014°59'  
2017-Nov-12 09:24N 43°23' E 004°57'180 7.8
2017-Nov-11 10:15N 41°13' E 002°08'313.4
2017-Nov-11 10:00N 41°11' E 002°05'713.6
2017-Nov-11 09:30N 41°05' E 001°59'713.2
2017-Nov-11 09:00N 41°00' E 001°54'713.2
2017-Nov-11 08:30N 40°55' E 001°49'  
2017-Nov-08 08:41N 37°50' W 000°16'312.4
2017-Nov-08 08:25N 37°48' W 000°18'612.3
2017-Nov-08 07:54N 37°42' W 000°23'512.3
2017-Nov-08 07:30N 37°38' W 000°26'612.0
2017-Nov-08 07:00N 37°33' W 000°31'612.0
2017-Nov-08 06:30N 37°29' W 000°37'611.9
2017-Nov-08 06:00N 37°25' W 000°42'611.9
2017-Nov-08 05:30N 37°21' W 000°48'611.9
2017-Nov-08 05:00N 37°17' W 000°53'612.0
2017-Nov-08 04:30N 37°13' W 000°59'612.1
2017-Nov-08 03:59N 37°09' W 001°05'  
Track history (hours):
 
Tides and Currents Weather Stations Pressure Air Temp Water Temp Dewpoint Dewpoint Depression Visibility Wind Speed Wind Dir Waves Ship Positions

Cinzia A

Last reported at 2017-Nov-18 03:28 UTC. Time now 2017-Nov-19 15:49 UTC.
Position N 37°38' E 023°43'.

Length 200 m; draft 11.1 m.

Type: Ship (hazmat cat A). MMSI: 271044448.

Date/timePositionNaut miles runAvg speedWind from/ knotsBaromVisibWave heightAir tempDewpointWater temp
2017-Nov-18 03:28N 37°38' E 023°43'612.0
2017-Nov-18 03:00N 37°43' E 023°40'612.0
2017-Nov-18 02:31N 37°48' E 023°37'611.7
2017-Nov-18 02:00N 37°54' E 023°36'3 6.3
2017-Nov-18 01:31N 37°57' E 023°35'0 0.7
2017-Nov-18 00:59N 37°57' E 023°35'0 0.0
2017-Nov-18 00:25N 37°57' E 023°35'0 0.0
2017-Nov-17 23:58N 37°57' E 023°35'0 0.0
2017-Nov-17 23:30N 37°57' E 023°35'0 0.0
2017-Nov-17 23:00N 37°57' E 023°35'0 0.0
2017-Nov-17 22:30N 37°57' E 023°35'0 0.0
2017-Nov-17 22:00N 37°57' E 023°35'0 0.0
2017-Nov-17 21:29N 37°57' E 023°35'0 0.0
2017-Nov-17 20:59N 37°57' E 023°35'0 0.0
2017-Nov-17 20:29N 37°57' E 023°35'0 0.0
2017-Nov-17 19:59N 37°57' E 023°35'0 0.0
2017-Nov-17 19:29N 37°57' E 023°35'0 0.0
2017-Nov-17 18:59N 37°57' E 023°35'0 0.0
2017-Nov-17 18:26N 37°57' E 023°35'0 0.0
2017-Nov-17 18:00N 37°57' E 023°35'0 0.0
2017-Nov-17 17:30N 37°57' E 023°35'0 0.0
2017-Nov-17 17:00N 37°57' E 023°35'0 0.0
2017-Nov-17 16:28N 37°57' E 023°35'0 0.0
2017-Nov-17 15:58N 37°57' E 023°35'0 0.0
2017-Nov-17 15:25N 37°57' E 023°35'0 0.1
2017-Nov-17 14:59N 37°57' E 023°35'0 0.0
2017-Nov-17 14:29N 37°57' E 023°35'0 0.0
2017-Nov-17 13:59N 37°57' E 023°35'0 0.0
2017-Nov-17 13:29N 37°57' E 023°35'0 0.0
2017-Nov-17 12:58N 37°57' E 023°35'0 0.0
2017-Nov-17 12:28N 37°57' E 023°35'0 0.0
2017-Nov-17 11:34N 37°57' E 023°35'0 0.0
2017-Nov-17 11:22N 37°57' E 023°35'0 0.0
2017-Nov-17 10:58N 37°57' E 023°35'0 0.0
2017-Nov-17 10:28N 37°57' E 023°35'0 0.0
2017-Nov-17 09:58N 37°57' E 023°35'0 0.0
2017-Nov-17 09:28N 37°57' E 023°35'0 0.0
2017-Nov-17 08:58N 37°57' E 023°35'0 0.0
2017-Nov-17 08:28N 37°57' E 023°35'0 0.0
2017-Nov-17 07:59N 37°57' E 023°35'0 0.0
2017-Nov-17 07:29N 37°57' E 023°35'0 0.0
2017-Nov-17 06:59N 37°57' E 023°35'0 0.0
2017-Nov-17 06:29N 37°57' E 023°35'1 1.3
2017-Nov-17 06:00N 37°57' E 023°35'2 3.8
2017-Nov-17 05:30N 37°55' E 023°35'2 5.0
2017-Nov-17 05:00N 37°52' E 023°34'0 0.5
2017-Nov-17 04:30N 37°53' E 023°35'0 0.3
2017-Nov-17 04:00N 37°52' E 023°34'0 0.4
2017-Nov-17 03:30N 37°52' E 023°34'0 0.4
2017-Nov-17 03:00N 37°52' E 023°34'2 4.4
2017-Nov-17 02:30N 37°54' E 023°36'510.7
2017-Nov-17 02:00N 37°49' E 023°40'611.9
2017-Nov-17 01:30N 37°44' E 023°44'611.7
2017-Nov-17 01:00N 37°38' E 023°46'611.5
2017-Nov-17 00:30N 37°33' E 023°48'711.5
2017-Nov-16 23:56N 37°27' E 023°46'511.6
2017-Nov-16 23:30N 37°22' E 023°44'611.7
2017-Nov-16 23:00N 37°16' E 023°42'34810.2
2017-Nov-15 12:56N 37°41' E 016°25'1010.2
2017-Nov-15 11:56N 37°43' E 016°12'5 9.9
2017-Nov-15 11:28N 37°45' E 016°07'511.0
2017-Nov-15 11:00N 37°47' E 016°01'612.2
2017-Nov-15 10:29N 37°49' E 015°53'612.2
2017-Nov-15 10:00N 37°51' E 015°46'611.6
2017-Nov-15 09:29N 37°53' E 015°39'612.1
2017-Nov-15 09:00N 37°58' E 015°36'611.5
2017-Nov-15 08:30N 38°04' E 015°34'510.6
2017-Nov-15 08:00N 38°09' E 015°35'613.0
2017-Nov-15 07:30N 38°15' E 015°38'611.6
2017-Nov-15 07:00N 38°21' E 015°38'611.4
2017-Nov-15 06:30N 38°25' E 015°32'611.2
2017-Nov-15 06:00N 38°29' E 015°27'611.4
2017-Nov-15 05:30N 38°33' E 015°22'611.6
2017-Nov-15 05:00N 38°37' E 015°17'612.0
2017-Nov-15 04:28N 38°41' E 015°11'611.8
2017-Nov-15 03:59N 38°45' E 015°05'612.0
2017-Nov-15 03:29N 38°48' E 014°59'  
2017-Nov-12 09:24N 43°23' E 004°57'180 7.8
2017-Nov-11 10:15N 41°13' E 002°08'313.4
2017-Nov-11 10:00N 41°11' E 002°05'713.6
2017-Nov-11 09:30N 41°05' E 001°59'713.2
2017-Nov-11 09:00N 41°00' E 001°54'713.2
2017-Nov-11 08:30N 40°55' E 001°49'  
2017-Nov-08 08:41N 37°50' W 000°16'312.4
2017-Nov-08 08:25N 37°48' W 000°18'612.3
2017-Nov-08 07:54N 37°42' W 000°23'512.3
2017-Nov-08 07:30N 37°38' W 000°26'612.0
2017-Nov-08 07:00N 37°33' W 000°31'612.0
2017-Nov-08 06:30N 37°29' W 000°37'611.9
2017-Nov-08 06:00N 37°25' W 000°42'611.9
2017-Nov-08 05:30N 37°21' W 000°48'611.9
2017-Nov-08 05:00N 37°17' W 000°53'612.0
2017-Nov-08 04:30N 37°13' W 000°59'612.1
2017-Nov-08 03:59N 37°09' W 001°05'  

Dump ship's entire track history